Time;durP1;ratioP1;P1;durP2;ratioP2;P2;SDS_P1;SDS_P2;PMS_P1;PMS_P2;Temp;Humidity;BMP_temperature;BMP_pressure;BME280_temperature;BME280_humidity;BME280_pressure;Samples;Min_cycle;Max_cycle;Signal;HPM_P1;HPM_P2
2022/04/13 00:01:36;;;;;;;10.45;6.22;;;;;;;15.32;95.03;99702.03;5055119;28;20028;-62
2022/04/13 00:04:01;;;;;;;9.30;5.35;;;;;;;15.36;94.73;99704.44;5056269;28;20021;-62
2022/04/13 00:06:27;;;;;;;9.43;5.30;;;;;;;15.41;94.39;99702.41;5054145;28;20029;-62
2022/04/13 00:08:55;;;;;;;8.90;5.32;;;;;;;15.43;92.68;99700.50;5062012;28;20097;-62
2022/04/13 00:11:21;;;;;;;8.57;5.50;;;;;;;15.45;92.77;99698.59;5074144;28;20036;-62
2022/04/13 00:13:47;;;;;;;7.97;5.13;;;;;;;15.52;91.40;99704.44;5073138;28;20028;-62
2022/04/13 00:16:12;;;;;;;12.32;5.70;;;;;;;15.54;91.01;99703.44;5074568;28;20040;-62
2022/04/13 00:18:38;;;;;;;10.43;5.60;;;;;;;15.58;89.78;99709.47;5094399;28;20543;-62
2022/04/13 00:21:04;;;;;;;7.93;5.35;;;;;;;15.60;89.79;99708.44;5093777;28;20056;-62
2022/04/13 00:23:30;;;;;;;8.75;5.28;;;;;;;15.60;90.70;99708.44;5094442;28;20091;-62
2022/04/13 00:25:58;;;;;;;10.82;5.78;;;;;;;15.54;91.28;99708.78;5092275;28;20493;-61
2022/04/13 00:28:23;;;;;;;7.57;4.72;;;;;;;15.47;91.87;99698.50;5055905;28;20025;-62
2022/04/13 00:30:49;;;;;;;7.57;5.15;;;;;;;15.38;92.05;99699.00;5054009;28;20029;-62
2022/04/13 00:33:14;;;;;;;8.15;4.63;;;;;;;15.39;93.78;99709.66;5066230;28;20077;-62
2022/04/13 00:35:40;;;;;;;9.45;5.63;;;;;;;15.36;93.91;99715.19;5073017;28;20024;-62
2022/04/13 00:38:06;;;;;;;8.95;4.85;;;;;;;15.34;94.29;99703.66;5072931;28;20046;-62
2022/04/13 00:40:31;;;;;;;10.50;4.82;;;;;;;15.33;95.01;99711.81;5073675;28;20035;-62
2022/04/13 00:42:57;;;;;;;10.07;5.00;;;;;;;15.27;94.92;99721.03;5073629;28;20142;-62
2022/04/13 00:45:22;;;;;;;9.82;5.07;;;;;;;15.28;95.08;99716.56;5073621;28;20393;-62
2022/04/13 00:47:48;;;;;;;9.43;5.13;;;;;;;15.22;94.15;99709.72;5073503;28;20506;-62
2022/04/13 00:50:14;;;;;;;8.70;4.82;;;;;;;15.23;94.25;99715.94;5073420;28;20036;-62
2022/04/13 00:52:44;;;;;;;8.38;4.88;;;;;;;15.22;93.50;99723.09;5073180;28;20032;-62
2022/04/13 00:55:10;;;;;;;8.50;5.13;;;;;;;15.20;94.10;99719.69;5073363;28;20020;-62
2022/04/13 00:57:37;;;;;;;8.57;4.93;;;;;;;15.12;94.67;99721.03;5073358;28;20016;-62
2022/04/13 01:00:06;;;;;;;10.52;5.43;;;;;;;15.10;95.12;99723.81;5073304;28;20056;-62
2022/04/13 01:02:32;;;;;;;9.52;5.10;;;;;;;15.11;94.52;99732.69;5073034;28;20476;-62
2022/04/13 01:05:04;;;;;;;10.57;5.28;;;;;;;15.15;93.02;99737.81;5061367;28;20031;-62
2022/04/13 01:07:31;;;;;;;11.05;5.18;;;;;;;15.20;92.03;99741.09;5053298;28;20021;-62
2022/04/13 01:10:00;;;;;;;10.30;4.63;;;;;;;15.18;92.77;99734.09;5069776;28;20361;-62
2022/04/13 01:12:25;;;;;;;7.65;4.82;;;;;;;15.15;92.89;99731.59;5072773;28;20024;-62
2022/04/13 01:14:51;;;;;;;10.18;5.03;;;;;;;15.15;92.87;99732.47;5073007;28;20082;-62
2022/04/13 01:17:17;;;;;;;9.07;4.53;;;;;;;15.10;92.73;99737.22;5082548;28;20076;-62
2022/04/13 01:19:46;;;;;;;8.18;4.78;;;;;;;15.04;93.20;99737.53;5092759;28;20909;-62
2022/04/13 01:22:21;;;;;;;10.43;4.78;;;;;;;15.00;93.57;99744.03;5085957;28;20086;-62
2022/04/13 01:24:47;;;;;;;6.80;4.13;;;;;;;14.96;93.77;99737.09;5061385;28;20100;-62
2022/04/13 01:27:15;;;;;;;7.88;4.68;;;;;;;14.92;93.57;99735.53;5052649;28;20554;-61
2022/04/13 01:29:44;;;;;;;7.68;4.93;;;;;;;14.91;93.67;99736.47;5052604;28;20116;-61
2022/04/13 01:32:13;;;;;;;7.07;4.50;;;;;;;14.80;94.07;99735.31;5052398;28;20025;-62
2022/04/13 01:34:49;;;;;;;7.57;4.50;;;;;;;14.81;94.53;99751.31;5052687;28;20029;-62
2022/04/13 01:37:15;;;;;;;8.55;4.43;;;;;;;14.77;94.32;99755.13;5052520;28;20021;-62
2022/04/13 01:39:40;;;;;;;8.02;4.82;;;;;;;14.67;94.81;99751.19;5057889;28;20223;-61
2022/04/13 01:42:06;;;;;;;7.10;4.20;;;;;;;14.55;94.58;99751.84;5072012;28;20036;-61
2022/04/13 01:44:31;;;;;;;6.95;4.40;;;;;;;14.56;95.61;99748.22;5072083;28;20430;-62
2022/04/13 01:46:57;;;;;;;8.88;4.82;;;;;;;14.56;95.29;99753.59;5072164;28;20020;-62
2022/04/13 01:49:23;;;;;;;7.25;4.15;;;;;;;14.57;95.93;99755.31;5072271;28;20029;-62
2022/04/13 01:51:48;;;;;;;10.02;4.57;;;;;;;14.57;95.95;99762.47;5072153;28;20502;-62
2022/04/13 01:54:14;;;;;;;7.80;3.70;;;;;;;14.56;95.81;99764.28;5072094;28;20017;-62
2022/04/13 01:56:39;;;;;;;6.95;4.47;;;;;;;14.49;96.14;99762.88;5072215;28;20024;-61
2022/04/13 01:59:05;;;;;;;9.90;4.25;;;;;;;14.41;96.87;99759.75;5071621;28;20506;-62
2022/04/13 02:01:31;;;;;;;6.95;3.97;;;;;;;14.39;96.29;99756.28;5058461;28;20032;-62
2022/04/13 02:03:57;;;;;;;9.32;4.63;;;;;;;14.44;96.01;99759.56;5052013;28;20031;-62
2022/04/13 02:06:22;;;;;;;8.75;4.93;;;;;;;14.34;97.19;99752.97;5052001;28;20037;-62
2022/04/13 02:08:48;;;;;;;8.00;4.50;;;;;;;14.42;96.66;99758.78;5051886;28;20112;-62
2022/04/13 02:11:14;;;;;;;5.88;3.92;;;;;;;14.41;97.57;99762.41;5052665;28;20021;-62
2022/04/13 02:13:40;;;;;;;9.00;4.75;;;;;;;14.36;97.30;99761.78;5053264;28;20051;-62
2022/04/13 02:16:06;;;;;;;11.00;4.82;;;;;;;14.27;97.07;99764.91;5051795;28;20036;-62
2022/04/13 02:18:31;;;;;;;6.15;4.05;;;;;;;14.22;97.24;99757.09;5091941;28;20039;-62
2022/04/13 02:20:58;;;;;;;8.13;4.13;;;;;;;14.24;97.70;99759.69;5091751;28;20079;-62
2022/04/13 02:23:23;;;;;;;11.60;5.18;;;;;;;14.22;97.14;99762.47;5078392;28;20040;-62
2022/04/13 02:25:48;;;;;;;6.97;4.57;;;;;;;14.17;97.64;99759.16;5062330;28;20074;-62
2022/04/13 02:28:14;;;;;;;8.32;4.13;;;;;;;14.14;98.37;99762.00;5051629;28;20107;-62
2022/04/13 02:30:39;;;;;;;6.20;4.32;;;;;;;14.12;98.51;99758.50;5071364;28;20381;-62
2022/04/13 02:33:05;;;;;;;6.65;4.72;;;;;;;14.07;98.54;99759.69;5071895;28;20158;-62
2022/04/13 02:35:30;;;;;;;8.15;5.10;;;;;;;13.99;99.16;99757.41;5070324;28;20024;-62
2022/04/13 02:37:56;;;;;;;7.93;4.75;;;;;;;13.98;99.22;99750.34;5071455;28;20075;-62
2022/04/13 02:40:22;;;;;;;9.80;4.47;;;;;;;13.92;99.58;99755.97;5071747;28;20433;-62
2022/04/13 02:42:47;;;;;;;9.85;4.53;;;;;;;13.87;99.50;99752.66;5071655;28;20082;-62
2022/04/13 02:45:12;;;;;;;8.02;4.50;;;;;;;13.76;100.00;99764.84;5071425;28;20078;-62
2022/04/13 02:47:38;;;;;;;7.82;4.50;;;;;;;13.69;100.00;99763.44;5071304;28;20104;-62
2022/04/13 02:50:06;;;;;;;6.85;4.78;;;;;;;13.65;100.00;99761.84;5070974;28;20632;-62
2022/04/13 02:52:32;;;;;;;6.82;4.20;;;;;;;13.54;100.00;99767.69;5070211;28;20104;-62
2022/04/13 02:54:57;;;;;;;9.25;5.28;;;;;;;13.61;100.00;99754.91;5071552;28;20035;-61
2022/04/13 02:57:23;;;;;;;6.85;4.72;;;;;;;13.56;100.00;99762.31;5071315;28;20016;-61
2022/04/13 02:59:49;;;;;;;9.48;4.70;;;;;;;13.59;100.00;99764.81;5071272;28;20066;-62
2022/04/13 03:02:16;;;;;;;8.02;4.43;;;;;;;13.59;100.00;99772.84;5071567;28;20024;-62
2022/04/13 03:04:43;;;;;;;6.13;4.30;;;;;;;13.62;99.98;99772.69;5071242;28;20081;-62
2022/04/13 03:07:12;;;;;;;6.63;4.40;;;;;;;13.56;100.00;99768.50;5071182;28;20028;-62
2022/04/13 03:09:38;;;;;;;8.73;4.18;;;;;;;13.53;100.00;99755.28;5071373;28;20028;-62
2022/04/13 03:12:05;;;;;;;7.28;4.65;;;;;;;13.49;100.00;99760.84;5071082;28;20104;-61
2022/04/13 03:14:30;;;;;;;7.18;4.53;;;;;;;13.47;100.00;99768.06;5063090;28;20094;-62
2022/04/13 03:16:55;;;;;;;6.40;3.90;;;;;;;13.44;100.00;99769.09;5064889;28;20028;-62
2022/04/13 03:19:21;;;;;;;9.80;4.50;;;;;;;13.43;100.00;99767.34;5091237;28;20059;-62
2022/04/13 03:21:51;;;;;;;7.72;4.60;;;;;;;13.42;100.00;99764.75;5091257;28;20139;-61
2022/04/13 03:24:17;;;;;;;7.13;4.50;;;;;;;13.46;100.00;99766.34;5071001;28;20033;-61
2022/04/13 03:26:42;;;;;;;5.68;3.83;;;;;;;13.44;100.00;99762.88;5070904;28;20029;-61
2022/04/13 03:29:08;;;;;;;8.45;4.32;;;;;;;13.38;100.00;99757.84;5070864;28;20024;-62
2022/04/13 03:31:33;;;;;;;7.68;4.50;;;;;;;13.39;100.00;99759.56;5068341;28;20021;-62
2022/04/13 03:33:58;;;;;;;6.38;4.07;;;;;;;13.41;100.00;99758.53;5050663;28;20040;-62
2022/04/13 03:36:24;;;;;;;13.30;4.63;;;;;;;13.44;100.00;99763.75;5051181;28;20108;-62
2022/04/13 03:38:49;;;;;;;7.95;3.97;;;;;;;13.44;100.00;99762.88;5050833;28;20029;-62
2022/04/13 03:41:14;;;;;;;9.15;5.03;;;;;;;13.46;100.00;99766.34;5050822;28;20465;-62
2022/04/13 03:43:40;;;;;;;6.85;3.92;;;;;;;13.44;100.00;99765.56;5050835;28;20100;-62
2022/04/13 03:46:05;;;;;;;6.68;4.20;;;;;;;13.38;100.00;99771.22;5050780;28;20040;-62
2022/04/13 03:48:31;;;;;;;7.00;4.07;;;;;;;13.41;100.00;99771.91;5053972;28;20029;-62
2022/04/13 03:51:00;;;;;;;7.18;4.18;;;;;;;13.41;100.00;99768.38;5054833;28;20029;-64
2022/04/13 03:53:26;;;;;;;7.72;4.35;;;;;;;13.42;100.00;99767.44;5067753;28;20368;-63
2022/04/13 03:55:51;;;;;;;6.85;3.83;;;;;;;13.45;100.00;99770.81;5072892;28;20039;-62
2022/04/13 03:58:16;;;;;;;8.07;4.18;;;;;;;13.49;100.00;99771.53;5073717;28;20077;-61
2022/04/13 04:00:42;;;;;;;8.55;4.88;;;;;;;13.57;100.00;99785.41;5056323;28;20111;-61
2022/04/13 04:03:07;;;;;;;6.45;4.28;;;;;;;13.59;100.00;99783.53;5072614;28;20431;-61
2022/04/13 04:05:33;;;;;;;7.20;4.07;;;;;;;13.64;100.00;99774.31;5069810;28;20025;-61
2022/04/13 04:07:58;;;;;;;7.25;4.03;;;;;;;13.66;100.00;99779.59;5054003;28;20033;-61
2022/04/13 04:10:24;;;;;;;8.13;3.90;;;;;;;13.60;100.00;99780.78;5053955;28;20029;-61
2022/04/13 04:12:49;;;;;;;5.03;3.72;;;;;;;13.56;100.00;99776.50;5053951;28;20032;-61
2022/04/13 04:15:14;;;;;;;7.80;4.10;;;;;;;13.55;100.00;99781.94;5056497;28;20392;-61
2022/04/13 04:17:40;;;;;;;7.65;4.68;;;;;;;13.61;100.00;99782.50;5080026;28;20055;-61
2022/04/13 04:20:09;;;;;;;7.55;4.47;;;;;;;13.61;100.00;99776.28;5089368;28;20052;-61
2022/04/13 04:22:35;;;;;;;8.75;4.20;;;;;;;13.65;100.00;99772.53;5074266;28;20024;-61
2022/04/13 04:25:05;;;;;;;8.00;4.32;;;;;;;13.63;100.00;99782.41;5055448;28;20048;-61
2022/04/13 04:27:31;;;;;;;11.20;4.22;;;;;;;13.46;100.00;99774.38;5074105;28;20502;-61
2022/04/13 04:29:56;;;;;;;8.50;4.57;;;;;;;13.50;100.00;99783.97;5073626;28;20028;-61
2022/04/13 04:32:22;;;;;;;10.38;4.93;;;;;;;13.54;100.00;99785.56;5076383;28;20103;-61
2022/04/13 04:34:51;;;;;;;10.65;4.55;;;;;;;13.54;100.00;99785.56;5073521;28;20071;-62
2022/04/13 04:37:16;;;;;;;6.93;4.68;;;;;;;13.57;100.00;99788.06;5073707;28;20390;-61
2022/04/13 04:39:42;;;;;;;13.27;5.75;;;;;;;13.65;100.00;99794.78;5076097;28;20040;-62
2022/04/13 04:42:07;;;;;;;9.15;5.47;;;;;;;13.60;100.00;99795.94;5073683;28;20036;-61
2022/04/13 04:44:33;;;;;;;7.00;4.75;;;;;;;13.67;100.00;99798.25;5075980;28;20020;-61
2022/04/13 04:46:58;;;;;;;10.02;5.75;;;;;;;13.67;100.00;99790.25;5073724;28;20521;-61
2022/04/13 04:49:24;;;;;;;10.43;5.15;;;;;;;13.63;100.00;99785.09;5072487;28;20073;-61
2022/04/13 04:51:49;;;;;;;10.50;5.15;;;;;;;13.56;100.00;99781.00;5084060;28;20020;-61
2022/04/13 04:54:15;;;;;;;19.33;6.70;;;;;;;13.53;100.00;99790.03;5073012;28;20035;-61
2022/04/13 04:56:40;;;;;;;8.35;4.65;;;;;;;13.54;100.00;99785.56;5073436;28;20028;-60
2022/04/13 04:59:06;;;;;;;9.20;5.03;;;;;;;13.47;100.00;99794.78;5072545;28;20031;-62
2022/04/13 05:01:32;;;;;;;11.43;4.82;;;;;;;13.40;100.00;99793.34;5073086;28;20453;-61
2022/04/13 05:03:57;;;;;;;8.90;4.70;;;;;;;13.38;100.00;99792.56;5073033;28;20036;-61
2022/04/13 05:06:29;;;;;;;9.35;5.55;;;;;;;13.40;100.00;99783.53;5072958;28;20032;-62
2022/04/13 05:08:55;;;;;;;12.02;5.25;;;;;;;13.54;100.00;99796.25;5072625;28;20066;-62
2022/04/13 05:11:21;;;;;;;8.43;4.72;;;;;;;13.57;100.00;99796.97;5072932;28;20103;-61
2022/04/13 05:13:47;;;;;;;8.05;4.50;;;;;;;13.49;100.00;99782.22;5072865;28;20523;-62
2022/04/13 05:16:14;;;;;;;11.23;5.78;;;;;;;13.61;99.82;99797.66;5071591;28;20032;-62
2022/04/13 05:18:40;;;;;;;11.40;5.88;;;;;;;13.65;99.40;99799.25;5070416;28;20052;-62
2022/04/13 05:21:06;;;;;;;12.88;4.70;;;;;;;13.68;99.89;99793.75;5084134;28;20044;-62
2022/04/13 05:23:31;;;;;;;8.10;4.80;;;;;;;13.65;99.79;99804.59;5092164;28;20514;-62
2022/04/13 05:25:57;;;;;;;8.00;4.40;;;;;;;13.64;99.26;99797.53;5092450;28;20038;-62
2022/04/13 05:28:22;;;;;;;8.00;4.50;;;;;;;13.62;99.29;99799.41;5092260;28;20042;-62
2022/04/13 05:30:48;;;;;;;7.97;4.80;;;;;;;13.61;99.23;99819.03;5087517;28;20086;-62
2022/04/13 05:33:13;;;;;;;9.38;6.80;;;;;;;13.71;99.28;99823.00;5084023;28;20511;-62
2022/04/13 05:35:39;;;;;;;14.98;8.15;;;;;;;13.81;99.49;99817.16;5075574;28;20032;-62
2022/04/13 05:38:05;;;;;;;9.77;6.47;;;;;;;14.01;99.33;99830.41;5092417;28;20066;-62
2022/04/13 05:40:31;;;;;;;10.82;6.25;;;;;;;14.16;98.40;99834.13;5092381;28;20046;-62
2022/04/13 05:42:56;;;;;;;11.57;5.85;;;;;;;14.21;96.90;99834.75;5092308;28;20044;-62
2022/04/13 05:45:21;;;;;;;10.23;6.00;;;;;;;14.45;96.49;99837.09;5092198;28;20471;-62
2022/04/13 05:47:47;;;;;;;10.07;6.18;;;;;;;14.69;95.43;99837.66;5092465;28;20028;-62
2022/04/13 05:50:13;;;;;;;10.40;5.75;;;;;;;14.94;94.81;99839.91;5092262;28;20501;-62
2022/04/13 05:52:40;;;;;;;11.75;6.40;;;;;;;15.12;94.46;99829.06;5092705;28;20111;-62
2022/04/13 05:55:07;;;;;;;10.00;5.88;;;;;;;15.34;93.25;99835.00;5092634;28;20028;-62
2022/04/13 05:57:33;;;;;;;10.15;6.18;;;;;;;15.65;93.51;99835.06;5087851;28;20486;-62
2022/04/13 05:59:58;;;;;;;12.82;6.82;;;;;;;15.96;92.52;99827.97;5087406;28;20024;-62
2022/04/13 06:02:24;;;;;;;10.88;5.35;;;;;;;16.20;88.68;99827.41;5078579;28;20395;-62
2022/04/13 06:04:49;;;;;;;10.30;5.80;;;;;;;16.40;84.86;99829.78;5069595;28;20032;-62
2022/04/13 06:07:15;;;;;;;9.60;5.90;;;;;;;16.67;85.05;99835.38;5068837;28;20032;-62
2022/04/13 06:09:40;;;;;;;12.65;5.68;;;;;;;16.96;84.70;99837.13;5071940;28;20074;-62
2022/04/13 06:12:06;;;;;;;13.05;6.90;;;;;;;17.32;82.27;99836.66;5074798;28;20037;-62
2022/04/13 06:14:32;;;;;;;10.57;6.25;;;;;;;17.63;78.83;99850.81;5070999;28;20491;-62
2022/04/13 06:16:57;;;;;;;9.73;5.88;;;;;;;17.80;78.17;99858.66;5077406;28;20028;-62
2022/04/13 06:19:22;;;;;;;14.05;5.63;;;;;;;17.91;78.11;99856.13;5069573;28;20107;-62
2022/04/13 06:21:48;;;;;;;10.80;6.75;;;;;;;18.06;77.90;99863.22;5070214;28;20059;-62
2022/04/13 06:24:13;;;;;;;8.15;5.28;;;;;;;18.28;76.45;99870.75;5090190;28;20118;-62
2022/04/13 06:26:39;;;;;;;7.78;5.20;;;;;;;18.53;75.54;99878.09;5090541;28;20106;-61
2022/04/13 06:29:04;;;;;;;9.70;4.82;;;;;;;18.92;74.46;99884.34;5087239;28;20020;-62
2022/04/13 06:31:30;;;;;;;7.35;4.95;;;;;;;19.31;72.90;99883.41;5089518;28;20441;-62
2022/04/13 06:33:56;;;;;;;6.45;4.15;;;;;;;19.65;71.38;99880.06;5089527;28;20035;-62
2022/04/13 06:36:22;;;;;;;8.00;4.00;;;;;;;19.94;68.88;99881.50;5084683;28;20121;-61
2022/04/13 06:38:47;;;;;;;9.82;4.93;;;;;;;20.20;67.47;99888.59;5081090;28;20429;-61
2022/04/13 06:41:13;;;;;;;7.20;4.43;;;;;;;20.35;66.28;99889.28;5069699;28;20123;-62
2022/04/13 06:43:39;;;;;;;7.93;4.90;;;;;;;20.44;64.75;99885.91;5070443;28;20064;-62
2022/04/13 06:46:06;;;;;;;7.82;4.30;;;;;;;20.65;64.52;99893.28;5069794;28;20026;-62
2022/04/13 06:48:31;;;;;;;7.97;4.57;;;;;;;20.88;63.61;99889.69;5069410;28;20025;-62
2022/04/13 06:50:57;;;;;;;9.30;5.32;;;;;;;21.12;62.42;99895.06;5070618;28;20020;-62
2022/04/13 06:53:23;;;;;;;8.60;4.43;;;;;;;21.36;60.00;99892.28;5082774;28;20030;-62
2022/04/13 06:55:49;;;;;;;10.30;4.05;;;;;;;21.64;57.89;99889.13;5088451;28;20031;-62
2022/04/13 06:58:14;;;;;;;6.60;4.07;;;;;;;;;;5091489;28;20031;-62
2022/04/13 07:00:40;;;;;;;7.05;4.63;;;;;;;22.12;55.19;99886.03;5086942;28;20054;-62
2022/04/13 07:03:05;;;;;;;9.90;4.82;;;;;;;22.44;53.98;99894.22;5063274;28;20039;-62
2022/04/13 07:05:31;;;;;;;9.75;4.30;;;;;;;22.68;53.22;99911.22;5069736;28;20024;-62
2022/04/13 07:07:57;;;;;;;9.95;4.85;;;;;;;22.82;52.46;99908.19;5068984;28;20028;-62
2022/04/13 07:10:22;;;;;;;7.38;4.32;;;;;;;22.85;50.66;99913.34;5070100;28;20024;-62
2022/04/13 07:12:48;;;;;;;8.80;4.05;;;;;;;23.18;51.18;99915.91;5069622;28;20039;-62
2022/04/13 07:15:17;;;;;;;7.97;3.90;;;;;;;23.38;49.44;99901.50;5069286;28;20024;-62
2022/04/13 07:17:43;;;;;;;9.40;4.50;;;;;;;23.44;47.64;99909.09;5070590;28;20055;-62
2022/04/13 07:20:09;;;;;;;9.70;4.75;;;;;;;23.41;47.80;99912.09;5070703;28;20495;-62
2022/04/13 07:22:52;;;;;;;8.60;4.57;;;;;;;22.98;48.79;99919.44;5079743;28;20047;-62
2022/04/13 07:25:18;;;;;;;7.72;5.05;;;;;;;22.81;49.97;99928.16;5091723;28;20027;-62
2022/04/13 07:27:44;;;;;;;10.98;4.68;;;;;;;22.88;50.75;99933.94;5095325;28;20036;-62
2022/04/13 07:30:11;;;;;;;7.78;5.18;;;;;;;22.86;51.34;99942.22;5093082;28;20020;-62
2022/04/13 07:32:36;;;;;;;8.65;5.15;;;;;;;22.65;51.72;99943.97;5093905;28;20081;-62
2022/04/13 07:35:03;;;;;;;8.85;5.03;;;;;;;22.88;52.02;99937.50;5095066;28;20023;-62
2022/04/13 07:37:29;;;;;;;8.52;5.88;;;;;;;23.34;50.75;99950.78;5095051;28;20063;-61
2022/04/13 07:39:54;;;;;;;10.60;5.60;;;;;;;23.16;51.33;99945.00;5095203;28;20403;-61
2022/04/13 07:42:24;;;;;;;11.23;5.88;;;;;;;23.20;51.13;99941.06;5094154;28;20028;-61
2022/04/13 07:44:50;;;;;;;11.07;5.63;;;;;;;23.44;51.32;99933.53;5093468;28;20028;-62
2022/04/13 07:47:15;;;;;;;10.55;5.15;;;;;;;23.88;50.01;99940.53;5094773;28;20535;-61
2022/04/13 07:49:41;;;;;;;7.97;4.97;;;;;;;24.28;49.96;99946.03;5094865;28;20431;-61
2022/04/13 07:52:07;;;;;;;8.35;4.88;;;;;;;24.16;47.98;99947.13;5094818;28;20035;-61
2022/04/13 07:54:33;;;;;;;9.25;5.03;;;;;;;24.04;47.75;99942.75;5094502;28;20105;-62
2022/04/13 07:56:59;;;;;;;10.02;5.00;;;;;;;24.03;47.11;99943.78;5094832;28;20114;-62
2022/04/13 07:59:24;;;;;;;8.27;4.15;;;;;;;24.19;46.95;99941.41;5094758;28;20028;-62
2022/04/13 08:01:50;;;;;;;8.98;4.35;;;;;;;24.39;46.28;99948.63;5091275;28;20016;-62
2022/04/13 08:04:15;;;;;;;7.93;4.70;;;;;;;24.45;46.06;99948.06;5092116;28;20099;-62
2022/04/13 08:06:40;;;;;;;8.63;4.28;;;;;;;24.68;45.86;99941.41;5094339;28;20588;-62
2022/04/13 08:09:06;;;;;;;8.52;5.20;;;;;;;24.95;45.33;99944.31;5093989;28;20023;-62
2022/04/13 08:11:31;;;;;;;10.07;4.78;;;;;;;25.18;44.45;99948.47;5090111;28;20042;-62
2022/04/13 08:13:57;;;;;;;8.63;4.80;;;;;;;25.76;44.45;99944.72;5094319;28;20095;-63
2022/04/13 08:16:22;;;;;;;8.65;3.83;;;;;;;25.79;40.78;99958.03;5094394;28;20549;-63
2022/04/13 08:18:48;;;;;;;10.32;3.40;;;;;;;26.02;42.05;99947.66;5094461;28;20028;-65
2022/04/13 08:21:13;;;;;;;8.45;3.45;;;;;;;26.36;41.85;99942.50;5093886;28;20583;-63
2022/04/13 08:23:39;;;;;;;7.30;3.45;;;;;;;26.45;38.87;99952.47;5078167;28;20032;-63
2022/04/13 08:26:04;;;;;;;7.00;3.40;;;;;;;26.32;39.09;99941.06;5073121;28;20506;-63
2022/04/13 08:28:29;;;;;;;8.82;3.50;;;;;;;26.48;40.34;99946.72;5073869;28;20043;-63
2022/04/13 08:30:55;;;;;;;7.95;2.78;;;;;;;26.67;37.78;99942.03;5072920;28;20035;-63
2022/04/13 08:33:21;;;;;;;6.45;2.65;;;;;;;26.91;35.37;99938.72;5056654;28;20074;-63
2022/04/13 08:35:46;;;;;;;4.50;2.40;;;;;;;27.05;37.98;99935.47;5052769;28;20029;-63
2022/04/13 08:38:12;;;;;;;5.22;2.58;;;;;;;26.61;36.44;99941.75;5053482;28;20024;-63
2022/04/13 08:40:45;;;;;;;7.35;3.00;;;;;;;26.77;36.63;99942.81;5053743;28;20481;-64
2022/04/13 08:43:11;;;;;;;4.38;2.40;;;;;;;27.32;36.44;99940.84;5053726;28;20028;-64
2022/04/13 08:45:52;;;;;;;4.05;2.67;;;;;;;27.67;36.43;99931.72;5053655;28;20036;-64
2022/04/13 08:48:22;;;;;;;5.63;2.40;;;;;;;27.81;36.29;99933.88;5053513;28;20037;-64
2022/04/13 08:50:53;;;;;;;7.85;2.55;;;;;;;28.06;35.71;99938.47;5053114;28;20099;-63
2022/04/13 08:53:24;;;;;;;4.63;2.10;;;;;;;28.48;36.42;99934.75;5066148;28;20036;-64
2022/04/13 08:55:56;;;;;;;5.78;2.45;;;;;;;28.64;33.56;99928.50;5072879;28;20048;-64
2022/04/13 08:58:28;;;;;;;5.78;2.50;;;;;;;28.71;33.97;99946.00;5071799;28;20035;-64
2022/04/13 09:00:57;;;;;;;5.80;2.05;;;;;;;28.68;32.49;99945.47;5072999;28;20133;-63
2022/04/13 09:03:51;;;;;;;5.70;1.98;;;;;;;28.82;31.87;99948.41;5072969;28;20028;-63
2022/04/13 09:06:20;;;;;;;4.60;1.55;;;;;;;29.15;29.06;99947.47;5071073;28;20082;-64
2022/04/13 09:08:52;;;;;;;3.72;1.50;;;;;;;29.33;28.75;99952.78;5072843;28;20025;-64
2022/04/13 09:11:20;;;;;;;2.80;1.40;;;;;;;29.58;30.60;99949.91;5073097;28;20104;-64
2022/04/13 09:13:45;;;;;;;8.48;1.40;;;;;;;29.80;30.58;99948.38;5072532;28;20016;-64
2022/04/13 09:16:12;;;;;;;3.13;1.30;;;;;;;29.76;30.65;99952.47;5073624;28;20050;-64
2022/04/13 09:18:38;;;;;;;3.13;1.00;;;;;;;29.69;28.17;99962.41;5092015;28;20436;-64
2022/04/13 09:21:03;;;;;;;3.03;1.48;;;;;;;28.98;28.11;99958.56;5091645;28;20124;-64
2022/04/13 09:23:29;;;;;;;6.07;1.55;;;;;;;29.04;29.77;99946.94;5077320;28;20030;-64
2022/04/13 09:25:56;;;;;;;3.22;1.40;;;;;;;29.51;29.55;99956.22;5055896;28;20032;-63
2022/04/13 09:28:22;;;;;;;4.10;1.23;;;;;;;29.86;30.51;99950.41;5053484;28;20032;-64
2022/04/13 09:30:47;;;;;;;3.75;1.38;;;;;;;30.12;29.52;99953.78;5052740;28;20037;-63
2022/04/13 09:33:13;;;;;;;4.47;1.63;;;;;;;30.01;28.50;99956.03;5052697;28;20392;-63
2022/04/13 09:35:38;;;;;;;5.72;1.50;;;;;;;30.20;28.98;99961.97;5055361;28;20027;-64
2022/04/13 09:38:08;;;;;;;3.35;1.50;;;;;;;30.17;29.75;99958.72;5052407;28;20047;-65
2022/04/13 09:40:37;;;;;;;6.90;2.33;;;;;;;29.89;31.08;99960.16;5052488;28;20654;-65
2022/04/13 09:43:13;;;;;;;4.38;2.03;;;;;;;29.76;30.46;99960.69;5052067;28;20055;-65
2022/04/13 09:45:50;;;;;;;4.82;2.13;;;;;;;29.62;31.83;99958.66;5050822;28;20063;-65
2022/04/13 09:48:18;;;;;;;6.75;1.70;;;;;;;29.11;31.91;99969.91;5051953;28;20083;-65
2022/04/13 09:50:45;;;;;;;2.83;1.63;;;;;;;29.77;32.79;99964.31;5052158;28;20040;-66
2022/04/13 09:53:13;;;;;;;5.88;2.00;;;;;;;29.96;31.46;99956.56;5063689;28;20024;-65
2022/04/13 09:55:40;;;;;;;6.35;1.70;;;;;;;30.08;33.83;99957.06;5072112;28;20028;-65
2022/04/13 09:58:11;;;;;;;3.40;1.70;;;;;;;30.19;32.62;99952.03;5072123;28;20066;-65
2022/04/13 10:00:37;;;;;;;4.75;2.05;;;;;;;29.96;31.88;99950.22;5058088;28;20092;-65
2022/04/13 10:03:11;;;;;;;4.90;2.05;;;;;;;30.13;32.64;99941.75;5052350;28;20407;-65
2022/04/13 10:05:37;;;;;;;3.25;1.75;;;;;;;30.21;32.53;99941.75;5052134;28;20391;-66
2022/04/13 10:08:08;;;;;;;5.47;2.08;;;;;;;30.33;31.30;99932.13;5054445;28;20442;-66
2022/04/13 10:10:35;;;;;;;6.22;2.00;;;;;;;30.14;33.57;99921.53;5051987;28;20104;-66
2022/04/13 10:13:01;;;;;;;6.80;1.63;;;;;;;30.31;32.49;99939.66;5050925;28;20568;-66
2022/04/13 10:15:26;;;;;;;9.07;2.25;;;;;;;29.97;31.46;99928.09;5050883;28;20516;-66
2022/04/13 10:18:00;;;;;;;4.70;2.33;;;;;;;30.17;31.28;99934.88;5081152;28;20078;-66
2022/04/13 10:20:41;;;;;;;4.55;1.80;;;;;;;30.17;30.66;99937.63;5091777;28;20087;-66
2022/04/13 10:23:07;;;;;;;4.53;1.85;;;;;;;30.42;30.30;99936.56;5080254;28;20052;-66
2022/04/13 10:25:32;;;;;;;4.63;1.90;;;;;;;30.40;28.98;99935.88;5053780;28;20083;-66
2022/04/13 10:28:00;;;;;;;4.03;1.80;;;;;;;30.64;31.02;99930.25;5051563;28;20094;-66
2022/04/13 10:30:31;;;;;;;5.05;2.10;;;;;;;31.18;31.21;99930.28;5050287;28;20060;-66
2022/04/13 10:33:02;;;;;;;4.32;1.92;;;;;;;31.18;30.56;99930.28;5061129;28;20029;-66
2022/04/13 10:35:29;;;;;;;5.93;1.70;;;;;;;31.20;31.07;99929.09;5066892;28;20419;-66
2022/04/13 10:37:55;;;;;;;5.53;1.70;;;;;;;31.37;30.47;99935.34;5071217;28;20024;-66
2022/04/13 10:40:23;;;;;;;5.78;1.73;;;;;;;31.60;29.57;99930.63;5071647;28;20032;-67
2022/04/13 10:42:51;;;;;;;8.25;2.03;;;;;;;31.35;30.34;99930.00;5071413;28;20021;-66
2022/04/13 10:45:17;;;;;;;6.65;2.25;;;;;;;31.87;30.16;99927.31;5071295;28;20032;-66
2022/04/13 10:48:05;;;;;;;3.08;1.70;;;;;;;31.99;28.98;99925.81;5071271;28;20037;-66
2022/04/13 10:50:45;;;;;;;5.07;1.70;;;;;;;31.78;31.04;99925.69;5071707;28;20033;-66
2022/04/13 10:53:20;;;;;;;5.38;2.00;;;;;;;31.75;27.96;99931.53;5071019;28;20032;-66
2022/04/13 10:55:55;;;;;;;6.10;1.70;;;;;;;31.84;28.81;99927.66;5069521;28;20021;-66
2022/04/13 10:58:33;;;;;;;4.22;1.63;;;;;;;31.32;28.71;99935.03;5074296;28;20025;-66
2022/04/13 11:01:05;;;;;;;6.93;2.03;;;;;;;31.31;31.71;99927.78;5075491;28;20027;-66
2022/04/13 11:03:38;;;;;;;4.13;1.90;;;;;;;31.55;30.83;99919.38;5075457;28;20048;-66
2022/04/13 11:06:05;;;;;;;6.55;1.88;;;;;;;32.01;30.81;99915.50;5075243;28;20052;-66
2022/04/13 11:08:52;;;;;;;3.95;1.60;;;;;;;31.99;30.84;99896.38;5075345;28;20033;-66
2022/04/13 11:11:28;;;;;;;3.60;1.40;;;;;;;32.43;29.23;99921.19;5075271;28;20028;-66
2022/04/13 11:13:54;;;;;;;3.97;1.40;;;;;;;32.87;28.63;99919.19;5075208;28;20031;-66
2022/04/13 11:16:22;;;;;;;5.65;1.55;;;;;;;33.03;28.83;99916.22;5076743;28;20024;-66
2022/04/13 11:19:06;;;;;;;5.30;1.40;;;;;;;32.60;27.44;99917.19;5039114;28;20368;-66
2022/04/13 11:21:33;;;;;;;2.80;1.20;;;;;;;32.36;27.96;99914.69;5070719;28;20534;-66
2022/04/13 11:23:58;;;;;;;8.25;1.90;;;;;;;32.25;29.24;99914.31;5093280;28;20408;-66
2022/04/13 11:26:27;;;;;;;3.42;1.30;;;;;;;32.52;29.42;99914.50;5095484;28;20107;-66
2022/04/13 11:29:12;;;;;;;4.05;1.40;;;;;;;31.56;29.71;99919.19;5094899;28;20028;-66
2022/04/13 11:31:59;;;;;;;4.65;1.70;;;;;;;31.74;30.07;99916.94;5095537;28;20024;-66